sensor_id;sensor_type;location;lat;lon;timestamp;P1;durP1;ratioP1;P2;durP2;ratioP2
20417;SDS011;10368;51.436;6.774;2023-04-26T00:01:58;10.10;;;4.53;;
20417;SDS011;10368;51.436;6.774;2023-04-26T00:04:25;7.47;;;3.73;;
20417;SDS011;10368;51.436;6.774;2023-04-26T00:06:54;12.53;;;3.70;;
20417;SDS011;10368;51.436;6.774;2023-04-26T00:09:21;7.73;;;4.50;;
20417;SDS011;10368;51.436;6.774;2023-04-26T00:11:49;6.43;;;3.97;;
20417;SDS011;10368;51.436;6.774;2023-04-26T00:14:16;10.10;;;3.67;;
20417;SDS011;10368;51.436;6.774;2023-04-26T00:16:43;10.43;;;3.87;;
20417;SDS011;10368;51.436;6.774;2023-04-26T00:19:11;5.00;;;3.43;;
20417;SDS011;10368;51.436;6.774;2023-04-26T00:21:38;8.27;;;3.73;;
20417;SDS011;10368;51.436;6.774;2023-04-26T00:24:06;9.67;;;3.93;;
20417;SDS011;10368;51.436;6.774;2023-04-26T00:26:34;8.27;;;3.60;;
20417;SDS011;10368;51.436;6.774;2023-04-26T00:29:02;6.53;;;4.60;;
20417;SDS011;10368;51.436;6.774;2023-04-26T00:31:30;6.10;;;3.40;;
20417;SDS011;10368;51.436;6.774;2023-04-26T00:33:57;7.07;;;3.33;;
20417;SDS011;10368;51.436;6.774;2023-04-26T00:36:24;4.97;;;3.93;;
20417;SDS011;10368;51.436;6.774;2023-04-26T00:38:52;7.80;;;3.83;;
20417;SDS011;10368;51.436;6.774;2023-04-26T00:41:20;8.43;;;5.07;;
20417;SDS011;10368;51.436;6.774;2023-04-26T00:43:47;8.33;;;4.10;;
20417;SDS011;10368;51.436;6.774;2023-04-26T00:46:15;8.03;;;3.70;;
20417;SDS011;10368;51.436;6.774;2023-04-26T00:48:42;6.17;;;3.97;;
20417;SDS011;10368;51.436;6.774;2023-04-26T00:51:10;9.30;;;5.37;;
20417;SDS011;10368;51.436;6.774;2023-04-26T00:53:37;10.30;;;5.27;;
20417;SDS011;10368;51.436;6.774;2023-04-26T00:56:11;9.33;;;4.70;;
20417;SDS011;10368;51.436;6.774;2023-04-26T00:58:39;13.17;;;5.10;;
20417;SDS011;10368;51.436;6.774;2023-04-26T01:01:06;10.93;;;4.80;;
20417;SDS011;10368;51.436;6.774;2023-04-26T01:03:35;9.83;;;5.43;;
20417;SDS011;10368;51.436;6.774;2023-04-26T01:06:02;8.97;;;4.77;;
20417;SDS011;10368;51.436;6.774;2023-04-26T01:08:29;8.17;;;4.17;;
20417;SDS011;10368;51.436;6.774;2023-04-26T01:10:57;6.37;;;4.40;;
20417;SDS011;10368;51.436;6.774;2023-04-26T01:13:24;9.90;;;4.80;;
20417;SDS011;10368;51.436;6.774;2023-04-26T01:15:52;9.07;;;4.13;;
20417;SDS011;10368;51.436;6.774;2023-04-26T01:18:19;9.17;;;3.87;;
20417;SDS011;10368;51.436;6.774;2023-04-26T01:20:46;7.40;;;3.80;;
20417;SDS011;10368;51.436;6.774;2023-04-26T01:23:14;10.47;;;4.50;;
20417;SDS011;10368;51.436;6.774;2023-04-26T01:25:42;7.03;;;4.80;;
20417;SDS011;10368;51.436;6.774;2023-04-26T01:28:09;11.63;;;4.60;;
20417;SDS011;10368;51.436;6.774;2023-04-26T01:30:36;8.43;;;4.30;;
20417;SDS011;10368;51.436;6.774;2023-04-26T01:33:04;7.87;;;4.70;;
20417;SDS011;10368;51.436;6.774;2023-04-26T01:35:31;8.57;;;4.10;;
20417;SDS011;10368;51.436;6.774;2023-04-26T01:37:58;9.50;;;4.47;;
20417;SDS011;10368;51.436;6.774;2023-04-26T01:40:26;7.03;;;4.90;;
20417;SDS011;10368;51.436;6.774;2023-04-26T01:42:53;7.93;;;4.87;;
20417;SDS011;10368;51.436;6.774;2023-04-26T01:45:20;5.83;;;4.53;;
20417;SDS011;10368;51.436;6.774;2023-04-26T01:47:47;6.03;;;4.80;;
20417;SDS011;10368;51.436;6.774;2023-04-26T01:50:14;11.73;;;4.63;;
20417;SDS011;10368;51.436;6.774;2023-04-26T01:52:42;8.07;;;4.30;;
20417;SDS011;10368;51.436;6.774;2023-04-26T01:55:09;15.13;;;5.47;;
20417;SDS011;10368;51.436;6.774;2023-04-26T01:57:36;8.53;;;4.43;;
20417;SDS011;10368;51.436;6.774;2023-04-26T02:00:03;6.73;;;4.67;;
20417;SDS011;10368;51.436;6.774;2023-04-26T02:02:31;8.13;;;4.57;;
20417;SDS011;10368;51.436;6.774;2023-04-26T02:04:58;6.87;;;4.50;;
20417;SDS011;10368;51.436;6.774;2023-04-26T02:07:25;9.83;;;4.53;;
20417;SDS011;10368;51.436;6.774;2023-04-26T02:09:52;8.63;;;5.07;;
20417;SDS011;10368;51.436;6.774;2023-04-26T02:12:19;9.80;;;4.87;;
20417;SDS011;10368;51.436;6.774;2023-04-26T02:14:47;11.13;;;4.93;;
20417;SDS011;10368;51.436;6.774;2023-04-26T02:17:14;11.60;;;4.97;;
20417;SDS011;10368;51.436;6.774;2023-04-26T02:19:42;11.50;;;4.93;;
20417;SDS011;10368;51.436;6.774;2023-04-26T02:22:09;7.40;;;4.80;;
20417;SDS011;10368;51.436;6.774;2023-04-26T02:24:36;7.73;;;4.57;;
20417;SDS011;10368;51.436;6.774;2023-04-26T02:27:04;7.47;;;4.83;;
20417;SDS011;10368;51.436;6.774;2023-04-26T02:29:31;10.67;;;5.37;;
20417;SDS011;10368;51.436;6.774;2023-04-26T02:32:09;12.60;;;5.13;;
20417;SDS011;10368;51.436;6.774;2023-04-26T02:34:37;11.90;;;5.70;;
20417;SDS011;10368;51.436;6.774;2023-04-26T02:37:04;9.57;;;5.67;;
20417;SDS011;10368;51.436;6.774;2023-04-26T02:39:32;9.93;;;5.37;;
20417;SDS011;10368;51.436;6.774;2023-04-26T02:41:59;8.30;;;5.60;;
20417;SDS011;10368;51.436;6.774;2023-04-26T02:44:29;11.57;;;5.90;;
20417;SDS011;10368;51.436;6.774;2023-04-26T02:46:57;19.90;;;6.43;;
20417;SDS011;10368;51.436;6.774;2023-04-26T02:49:24;10.80;;;7.13;;
20417;SDS011;10368;51.436;6.774;2023-04-26T02:51:51;14.37;;;6.63;;
20417;SDS011;10368;51.436;6.774;2023-04-26T02:54:18;12.33;;;6.27;;
20417;SDS011;10368;51.436;6.774;2023-04-26T02:56:46;11.67;;;6.40;;
20417;SDS011;10368;51.436;6.774;2023-04-26T02:59:13;10.23;;;6.43;;
20417;SDS011;10368;51.436;6.774;2023-04-26T03:01:41;10.03;;;6.20;;
20417;SDS011;10368;51.436;6.774;2023-04-26T03:04:08;10.33;;;5.90;;
20417;SDS011;10368;51.436;6.774;2023-04-26T03:06:36;18.43;;;7.07;;
20417;SDS011;10368;51.436;6.774;2023-04-26T03:09:03;15.07;;;6.07;;
20417;SDS011;10368;51.436;6.774;2023-04-26T03:11:33;13.00;;;5.37;;
20417;SDS011;10368;51.436;6.774;2023-04-26T03:14:00;10.27;;;5.60;;
20417;SDS011;10368;51.436;6.774;2023-04-26T03:16:27;13.53;;;6.50;;
20417;SDS011;10368;51.436;6.774;2023-04-26T03:18:55;17.23;;;8.17;;
20417;SDS011;10368;51.436;6.774;2023-04-26T03:21:22;15.63;;;6.73;;
20417;SDS011;10368;51.436;6.774;2023-04-26T03:23:49;13.63;;;6.90;;
20417;SDS011;10368;51.436;6.774;2023-04-26T03:26:16;20.77;;;8.13;;
20417;SDS011;10368;51.436;6.774;2023-04-26T03:28:43;9.37;;;7.03;;
20417;SDS011;10368;51.436;6.774;2023-04-26T03:31:10;15.47;;;8.37;;
20417;SDS011;10368;51.436;6.774;2023-04-26T03:33:38;18.47;;;8.63;;
20417;SDS011;10368;51.436;6.774;2023-04-26T03:36:05;11.90;;;6.90;;
20417;SDS011;10368;51.436;6.774;2023-04-26T03:38:32;12.23;;;7.47;;
20417;SDS011;10368;51.436;6.774;2023-04-26T03:40:59;10.83;;;6.83;;
20417;SDS011;10368;51.436;6.774;2023-04-26T03:43:27;16.57;;;7.70;;
20417;SDS011;10368;51.436;6.774;2023-04-26T03:45:54;18.20;;;8.20;;
20417;SDS011;10368;51.436;6.774;2023-04-26T03:48:21;14.00;;;7.83;;
20417;SDS011;10368;51.436;6.774;2023-04-26T03:50:48;13.77;;;8.87;;
20417;SDS011;10368;51.436;6.774;2023-04-26T03:53:16;17.50;;;8.67;;
20417;SDS011;10368;51.436;6.774;2023-04-26T03:55:43;16.43;;;9.33;;
20417;SDS011;10368;51.436;6.774;2023-04-26T03:58:11;18.27;;;9.30;;
20417;SDS011;10368;51.436;6.774;2023-04-26T04:00:39;14.03;;;10.20;;
20417;SDS011;10368;51.436;6.774;2023-04-26T04:03:08;15.40;;;9.30;;
20417;SDS011;10368;51.436;6.774;2023-04-26T04:05:36;23.30;;;11.77;;
20417;SDS011;10368;51.436;6.774;2023-04-26T04:08:04;21.70;;;10.67;;
20417;SDS011;10368;51.436;6.774;2023-04-26T04:10:31;13.33;;;8.77;;
20417;SDS011;10368;51.436;6.774;2023-04-26T04:12:59;14.47;;;9.50;;
20417;SDS011;10368;51.436;6.774;2023-04-26T04:15:26;14.47;;;10.17;;
20417;SDS011;10368;51.436;6.774;2023-04-26T04:17:53;17.37;;;9.87;;
20417;SDS011;10368;51.436;6.774;2023-04-26T04:20:20;17.30;;;9.13;;
20417;SDS011;10368;51.436;6.774;2023-04-26T04:22:48;10.70;;;8.43;;
20417;SDS011;10368;51.436;6.774;2023-04-26T04:25:16;14.97;;;8.33;;
20417;SDS011;10368;51.436;6.774;2023-04-26T04:27:46;14.60;;;7.80;;
20417;SDS011;10368;51.436;6.774;2023-04-26T04:30:17;12.97;;;7.53;;
20417;SDS011;10368;51.436;6.774;2023-04-26T04:32:44;13.47;;;7.13;;
20417;SDS011;10368;51.436;6.774;2023-04-26T04:35:12;12.47;;;7.47;;
20417;SDS011;10368;51.436;6.774;2023-04-26T04:37:40;12.03;;;7.63;;
20417;SDS011;10368;51.436;6.774;2023-04-26T04:40:09;14.07;;;8.17;;
20417;SDS011;10368;51.436;6.774;2023-04-26T04:42:38;13.00;;;7.23;;
20417;SDS011;10368;51.436;6.774;2023-04-26T04:45:06;21.20;;;7.37;;
20417;SDS011;10368;51.436;6.774;2023-04-26T04:47:33;17.00;;;7.87;;
20417;SDS011;10368;51.436;6.774;2023-04-26T04:50:05;15.40;;;7.50;;
20417;SDS011;10368;51.436;6.774;2023-04-26T04:52:33;9.73;;;6.73;;
20417;SDS011;10368;51.436;6.774;2023-04-26T04:55:01;13.00;;;7.00;;
20417;SDS011;10368;51.436;6.774;2023-04-26T04:57:29;12.90;;;7.03;;
20417;SDS011;10368;51.436;6.774;2023-04-26T04:59:57;10.03;;;6.97;;
20417;SDS011;10368;51.436;6.774;2023-04-26T05:02:32;12.37;;;7.10;;
20417;SDS011;10368;51.436;6.774;2023-04-26T05:04:59;11.30;;;7.47;;
20417;SDS011;10368;51.436;6.774;2023-04-26T05:07:27;9.70;;;7.30;;
20417;SDS011;10368;51.436;6.774;2023-04-26T05:09:54;10.40;;;8.10;;
20417;SDS011;10368;51.436;6.774;2023-04-26T05:12:21;12.60;;;8.07;;
20417;SDS011;10368;51.436;6.774;2023-04-26T05:14:49;13.93;;;8.70;;
20417;SDS011;10368;51.436;6.774;2023-04-26T05:17:16;16.40;;;9.23;;
20417;SDS011;10368;51.436;6.774;2023-04-26T05:19:43;20.60;;;10.13;;
20417;SDS011;10368;51.436;6.774;2023-04-26T05:22:11;23.97;;;11.00;;
20417;SDS011;10368;51.436;6.774;2023-04-26T05:24:46;25.40;;;12.13;;
20417;SDS011;10368;51.436;6.774;2023-04-26T05:27:17;21.60;;;11.27;;
20417;SDS011;10368;51.436;6.774;2023-04-26T05:29:44;21.50;;;10.63;;
20417;SDS011;10368;51.436;6.774;2023-04-26T05:32:12;22.23;;;9.90;;
20417;SDS011;10368;51.436;6.774;2023-04-26T05:34:39;16.10;;;9.13;;
20417;SDS011;10368;51.436;6.774;2023-04-26T05:37:07;16.37;;;8.83;;
20417;SDS011;10368;51.436;6.774;2023-04-26T05:39:34;22.20;;;8.90;;
20417;SDS011;10368;51.436;6.774;2023-04-26T05:42:02;15.17;;;9.77;;
20417;SDS011;10368;51.436;6.774;2023-04-26T05:44:29;42.43;;;10.77;;
20417;SDS011;10368;51.436;6.774;2023-04-26T05:46:56;16.10;;;9.73;;
20417;SDS011;10368;51.436;6.774;2023-04-26T05:49:24;16.97;;;10.23;;
20417;SDS011;10368;51.436;6.774;2023-04-26T05:51:51;21.63;;;11.00;;
20417;SDS011;10368;51.436;6.774;2023-04-26T05:54:18;18.27;;;10.27;;
20417;SDS011;10368;51.436;6.774;2023-04-26T05:56:47;17.33;;;9.77;;
20417;SDS011;10368;51.436;6.774;2023-04-26T05:59:14;19.97;;;9.77;;
20417;SDS011;10368;51.436;6.774;2023-04-26T06:01:41;13.63;;;9.10;;
20417;SDS011;10368;51.436;6.774;2023-04-26T06:04:09;18.03;;;9.47;;
20417;SDS011;10368;51.436;6.774;2023-04-26T06:06:37;16.50;;;9.17;;
20417;SDS011;10368;51.436;6.774;2023-04-26T06:09:04;17.93;;;10.80;;
20417;SDS011;10368;51.436;6.774;2023-04-26T06:11:31;13.57;;;9.03;;
20417;SDS011;10368;51.436;6.774;2023-04-26T06:13:59;15.40;;;10.30;;
20417;SDS011;10368;51.436;6.774;2023-04-26T06:16:26;19.97;;;10.43;;
20417;SDS011;10368;51.436;6.774;2023-04-26T06:18:53;20.47;;;11.17;;
20417;SDS011;10368;51.436;6.774;2023-04-26T06:21:20;22.33;;;11.17;;
20417;SDS011;10368;51.436;6.774;2023-04-26T06:23:48;16.97;;;10.77;;
20417;SDS011;10368;51.436;6.774;2023-04-26T06:26:16;22.83;;;11.63;;
20417;SDS011;10368;51.436;6.774;2023-04-26T06:28:44;36.97;;;12.57;;
20417;SDS011;10368;51.436;6.774;2023-04-26T06:31:12;23.70;;;11.03;;
20417;SDS011;10368;51.436;6.774;2023-04-26T06:33:39;22.33;;;11.17;;
20417;SDS011;10368;51.436;6.774;2023-04-26T06:36:10;21.60;;;11.43;;
20417;SDS011;10368;51.436;6.774;2023-04-26T06:38:38;20.67;;;11.33;;
20417;SDS011;10368;51.436;6.774;2023-04-26T06:41:05;22.53;;;11.13;;
20417;SDS011;10368;51.436;6.774;2023-04-26T06:43:33;17.30;;;10.07;;
20417;SDS011;10368;51.436;6.774;2023-04-26T06:46:00;18.20;;;10.20;;
20417;SDS011;10368;51.436;6.774;2023-04-26T06:48:27;22.37;;;11.10;;
20417;SDS011;10368;51.436;6.774;2023-04-26T06:50:55;20.63;;;9.43;;
20417;SDS011;10368;51.436;6.774;2023-04-26T06:53:22;22.83;;;10.40;;
20417;SDS011;10368;51.436;6.774;2023-04-26T06:55:49;23.33;;;10.00;;
20417;SDS011;10368;51.436;6.774;2023-04-26T06:58:18;18.20;;;9.43;;
20417;SDS011;10368;51.436;6.774;2023-04-26T07:00:46;18.10;;;10.87;;
20417;SDS011;10368;51.436;6.774;2023-04-26T07:03:13;18.13;;;9.57;;
20417;SDS011;10368;51.436;6.774;2023-04-26T07:05:41;14.17;;;8.00;;
20417;SDS011;10368;51.436;6.774;2023-04-26T07:08:08;18.77;;;8.80;;
20417;SDS011;10368;51.436;6.774;2023-04-26T07:10:37;17.60;;;9.30;;
20417;SDS011;10368;51.436;6.774;2023-04-26T07:13:05;13.40;;;9.30;;
20417;SDS011;10368;51.436;6.774;2023-04-26T07:15:34;11.83;;;6.43;;
20417;SDS011;10368;51.436;6.774;2023-04-26T07:18:02;19.37;;;6.57;;
20417;SDS011;10368;51.436;6.774;2023-04-26T07:20:29;7.53;;;2.73;;
20417;SDS011;10368;51.436;6.774;2023-04-26T07:22:56;14.67;;;4.50;;
20417;SDS011;10368;51.436;6.774;2023-04-26T07:25:23;7.23;;;3.77;;
20417;SDS011;10368;51.436;6.774;2023-04-26T07:27:51;9.80;;;3.37;;
20417;SDS011;10368;51.436;6.774;2023-04-26T07:30:21;10.63;;;4.23;;
20417;SDS011;10368;51.436;6.774;2023-04-26T07:32:51;9.83;;;2.60;;
20417;SDS011;10368;51.436;6.774;2023-04-26T07:35:18;5.43;;;2.27;;
20417;SDS011;10368;51.436;6.774;2023-04-26T07:37:46;7.60;;;2.63;;
20417;SDS011;10368;51.436;6.774;2023-04-26T07:40:13;9.70;;;3.60;;
20417;SDS011;10368;51.436;6.774;2023-04-26T07:42:40;7.67;;;4.10;;
20417;SDS011;10368;51.436;6.774;2023-04-26T07:45:08;5.07;;;3.07;;
20417;SDS011;10368;51.436;6.774;2023-04-26T07:47:35;6.07;;;2.83;;
20417;SDS011;10368;51.436;6.774;2023-04-26T07:50:03;5.40;;;3.07;;
20417;SDS011;10368;51.436;6.774;2023-04-26T07:52:30;6.57;;;2.63;;
20417;SDS011;10368;51.436;6.774;2023-04-26T07:54:58;15.37;;;3.50;;
20417;SDS011;10368;51.436;6.774;2023-04-26T07:57:25;4.30;;;3.10;;
20417;SDS011;10368;51.436;6.774;2023-04-26T07:59:52;8.00;;;3.20;;
20417;SDS011;10368;51.436;6.774;2023-04-26T08:02:19;11.23;;;3.30;;
20417;SDS011;10368;51.436;6.774;2023-04-26T08:05:02;4.73;;;2.80;;
20417;SDS011;10368;51.436;6.774;2023-04-26T08:07:29;7.13;;;3.00;;
20417;SDS011;10368;51.436;6.774;2023-04-26T08:09:57;5.27;;;3.17;;
20417;SDS011;10368;51.436;6.774;2023-04-26T08:12:24;7.47;;;3.27;;
20417;SDS011;10368;51.436;6.774;2023-04-26T08:14:51;5.00;;;2.30;;
20417;SDS011;10368;51.436;6.774;2023-04-26T08:17:19;4.23;;;3.17;;
20417;SDS011;10368;51.436;6.774;2023-04-26T08:19:46;9.67;;;3.17;;
20417;SDS011;10368;51.436;6.774;2023-04-26T08:22:13;5.50;;;2.80;;
20417;SDS011;10368;51.436;6.774;2023-04-26T08:24:41;5.10;;;3.00;;
20417;SDS011;10368;51.436;6.774;2023-04-26T08:27:08;8.27;;;2.20;;
20417;SDS011;10368;51.436;6.774;2023-04-26T08:29:35;9.77;;;2.43;;
20417;SDS011;10368;51.436;6.774;2023-04-26T08:32:02;4.57;;;2.10;;
20417;SDS011;10368;51.436;6.774;2023-04-26T08:34:29;5.33;;;2.07;;
20417;SDS011;10368;51.436;6.774;2023-04-26T08:36:57;5.33;;;1.60;;
20417;SDS011;10368;51.436;6.774;2023-04-26T08:39:24;8.10;;;4.03;;
20417;SDS011;10368;51.436;6.774;2023-04-26T08:41:54;6.70;;;2.63;;
20417;SDS011;10368;51.436;6.774;2023-04-26T08:44:23;5.40;;;2.57;;
20417;SDS011;10368;51.436;6.774;2023-04-26T08:51:51;6.43;;;2.60;;
20417;SDS011;10368;51.436;6.774;2023-04-26T08:54:19;5.20;;;2.30;;
20417;SDS011;10368;51.436;6.774;2023-04-26T08:56:47;5.07;;;1.97;;
20417;SDS011;10368;51.436;6.774;2023-04-26T08:59:14;7.77;;;1.90;;
20417;SDS011;10368;51.436;6.774;2023-04-26T09:01:42;3.73;;;1.83;;
20417;SDS011;10368;51.436;6.774;2023-04-26T09:04:10;5.17;;;2.30;;
20417;SDS011;10368;51.436;6.774;2023-04-26T09:06:38;4.97;;;2.63;;
20417;SDS011;10368;51.436;6.774;2023-04-26T09:09:05;4.37;;;2.53;;
20417;SDS011;10368;51.436;6.774;2023-04-26T09:14:21;5.77;;;2.33;;
20417;SDS011;10368;51.436;6.774;2023-04-26T09:16:48;5.43;;;2.50;;
20417;SDS011;10368;51.436;6.774;2023-04-26T09:19:17;5.23;;;2.27;;
20417;SDS011;10368;51.436;6.774;2023-04-26T09:21:45;4.47;;;2.73;;
20417;SDS011;10368;51.436;6.774;2023-04-26T09:24:12;5.17;;;2.67;;
20417;SDS011;10368;51.436;6.774;2023-04-26T09:26:40;6.43;;;3.10;;
20417;SDS011;10368;51.436;6.774;2023-04-26T09:29:11;7.73;;;3.63;;
20417;SDS011;10368;51.436;6.774;2023-04-26T09:31:48;6.30;;;2.57;;
20417;SDS011;10368;51.436;6.774;2023-04-26T09:34:16;5.03;;;2.17;;
20417;SDS011;10368;51.436;6.774;2023-04-26T09:36:46;5.50;;;3.10;;
20417;SDS011;10368;51.436;6.774;2023-04-26T09:39:13;6.00;;;2.90;;
20417;SDS011;10368;51.436;6.774;2023-04-26T09:41:41;5.17;;;3.00;;
20417;SDS011;10368;51.436;6.774;2023-04-26T09:44:21;6.43;;;3.07;;
20417;SDS011;10368;51.436;6.774;2023-04-26T09:47:05;7.10;;;3.37;;
20417;SDS011;10368;51.436;6.774;2023-04-26T09:52:10;8.53;;;3.37;;
20417;SDS011;10368;51.436;6.774;2023-04-26T09:54:38;4.20;;;2.90;;
20417;SDS011;10368;51.436;6.774;2023-04-26T09:57:06;5.60;;;3.33;;
20417;SDS011;10368;51.436;6.774;2023-04-26T09:59:44;4.50;;;2.50;;
20417;SDS011;10368;51.436;6.774;2023-04-26T10:02:16;4.33;;;2.30;;
20417;SDS011;10368;51.436;6.774;2023-04-26T10:04:44;7.73;;;3.53;;
20417;SDS011;10368;51.436;6.774;2023-04-26T10:07:13;9.90;;;3.33;;
20417;SDS011;10368;51.436;6.774;2023-04-26T10:09:41;6.63;;;3.80;;
20417;SDS011;10368;51.436;6.774;2023-04-26T10:12:12;6.20;;;2.63;;
20417;SDS011;10368;51.436;6.774;2023-04-26T10:14:40;5.50;;;3.20;;
20417;SDS011;10368;51.436;6.774;2023-04-26T10:17:07;6.07;;;2.87;;
20417;SDS011;10368;51.436;6.774;2023-04-26T10:19:35;3.87;;;2.07;;
20417;SDS011;10368;51.436;6.774;2023-04-26T10:22:03;4.97;;;2.57;;
20417;SDS011;10368;51.436;6.774;2023-04-26T10:24:32;5.80;;;2.90;;
20417;SDS011;10368;51.436;6.774;2023-04-26T10:27:00;6.07;;;3.30;;
20417;SDS011;10368;51.436;6.774;2023-04-26T10:32:16;5.50;;;2.53;;
20417;SDS011;10368;51.436;6.774;2023-04-26T10:34:43;6.17;;;2.27;;
20417;SDS011;10368;51.436;6.774;2023-04-26T10:37:14;3.33;;;1.90;;
20417;SDS011;10368;51.436;6.774;2023-04-26T10:39:44;3.93;;;2.20;;
20417;SDS011;10368;51.436;6.774;2023-04-26T10:44:56;3.60;;;2.63;;
20417;SDS011;10368;51.436;6.774;2023-04-26T10:50:03;6.53;;;3.70;;
20417;SDS011;10368;51.436;6.774;2023-04-26T10:52:39;3.00;;;2.07;;
20417;SDS011;10368;51.436;6.774;2023-04-26T10:55:40;4.17;;;2.10;;
20417;SDS011;10368;51.436;6.774;2023-04-26T10:58:30;5.67;;;2.70;;
20417;SDS011;10368;51.436;6.774;2023-04-26T11:04:06;5.03;;;2.77;;
20417;SDS011;10368;51.436;6.774;2023-04-26T11:09:38;3.30;;;2.50;;
20417;SDS011;10368;51.436;6.774;2023-04-26T11:12:07;6.83;;;2.90;;
20417;SDS011;10368;51.436;6.774;2023-04-26T11:14:38;4.63;;;2.70;;
20417;SDS011;10368;51.436;6.774;2023-04-26T11:17:10;6.43;;;3.53;;
20417;SDS011;10368;51.436;6.774;2023-04-26T11:19:39;9.03;;;2.73;;
20417;SDS011;10368;51.436;6.774;2023-04-26T11:22:07;5.20;;;2.70;;
20417;SDS011;10368;51.436;6.774;2023-04-26T11:24:34;6.53;;;2.63;;
20417;SDS011;10368;51.436;6.774;2023-04-26T11:27:11;4.80;;;3.17;;
20417;SDS011;10368;51.436;6.774;2023-04-26T11:29:38;3.33;;;2.70;;
20417;SDS011;10368;51.436;6.774;2023-04-26T11:32:05;2.70;;;2.50;;
20417;SDS011;10368;51.436;6.774;2023-04-26T11:34:35;4.53;;;2.67;;
20417;SDS011;10368;51.436;6.774;2023-04-26T11:37:04;4.00;;;2.60;;
20417;SDS011;10368;51.436;6.774;2023-04-26T11:39:32;4.87;;;2.67;;
20417;SDS011;10368;51.436;6.774;2023-04-26T11:42:06;6.60;;;2.77;;
20417;SDS011;10368;51.436;6.774;2023-04-26T11:44:34;3.77;;;2.47;;
20417;SDS011;10368;51.436;6.774;2023-04-26T11:47:03;3.53;;;2.73;;
20417;SDS011;10368;51.436;6.774;2023-04-26T11:49:39;4.00;;;2.83;;
20417;SDS011;10368;51.436;6.774;2023-04-26T11:52:07;8.30;;;2.83;;
20417;SDS011;10368;51.436;6.774;2023-04-26T11:54:35;4.90;;;3.17;;
20417;SDS011;10368;51.436;6.774;2023-04-26T11:57:12;5.63;;;3.27;;
20417;SDS011;10368;51.436;6.774;2023-04-26T11:59:42;6.43;;;2.87;;
20417;SDS011;10368;51.436;6.774;2023-04-26T12:02:10;5.57;;;2.83;;
20417;SDS011;10368;51.436;6.774;2023-04-26T12:04:37;5.33;;;3.37;;
20417;SDS011;10368;51.436;6.774;2023-04-26T12:07:06;4.73;;;3.33;;
20417;SDS011;10368;51.436;6.774;2023-04-26T12:09:33;7.40;;;4.40;;
20417;SDS011;10368;51.436;6.774;2023-04-26T12:12:04;3.30;;;2.30;;
20417;SDS011;10368;51.436;6.774;2023-04-26T12:14:35;5.82;;;2.72;;
20417;SDS011;10368;51.436;6.774;2023-04-26T12:17:03;2.90;;;2.70;;
20417;SDS011;10368;51.436;6.774;2023-04-26T12:19:40;5.57;;;2.63;;
20417;SDS011;10368;51.436;6.774;2023-04-26T12:22:07;6.05;;;2.63;;
20417;SDS011;10368;51.436;6.774;2023-04-26T12:24:35;6.93;;;3.03;;
20417;SDS011;10368;51.436;6.774;2023-04-26T12:27:03;5.93;;;3.38;;
20417;SDS011;10368;51.436;6.774;2023-04-26T12:29:32;5.63;;;3.30;;
20417;SDS011;10368;51.436;6.774;2023-04-26T12:32:00;4.85;;;2.88;;
20417;SDS011;10368;51.436;6.774;2023-04-26T12:34:28;2.63;;;2.10;;
20417;SDS011;10368;51.436;6.774;2023-04-26T12:36:55;4.57;;;2.47;;
20417;SDS011;10368;51.436;6.774;2023-04-26T12:39:22;3.70;;;2.47;;
20417;SDS011;10368;51.436;6.774;2023-04-26T12:41:49;5.18;;;2.45;;
20417;SDS011;10368;51.436;6.774;2023-04-26T12:44:17;7.07;;;2.25;;
20417;SDS011;10368;51.436;6.774;2023-04-26T12:46:47;3.67;;;2.72;;
20417;SDS011;10368;51.436;6.774;2023-04-26T12:49:15;3.67;;;2.30;;
20417;SDS011;10368;51.436;6.774;2023-04-26T12:51:42;5.43;;;2.83;;
20417;SDS011;10368;51.436;6.774;2023-04-26T12:54:09;6.15;;;2.90;;
20417;SDS011;10368;51.436;6.774;2023-04-26T12:56:36;5.18;;;2.97;;
20417;SDS011;10368;51.436;6.774;2023-04-26T12:59:09;3.28;;;2.67;;
20417;SDS011;10368;51.436;6.774;2023-04-26T13:01:36;4.90;;;3.22;;
20417;SDS011;10368;51.436;6.774;2023-04-26T13:04:03;4.68;;;3.15;;
20417;SDS011;10368;51.436;6.774;2023-04-26T13:06:32;4.55;;;2.55;;
20417;SDS011;10368;51.436;6.774;2023-04-26T13:09:00;3.70;;;3.10;;
20417;SDS011;10368;51.436;6.774;2023-04-26T13:11:27;4.53;;;2.80;;
20417;SDS011;10368;51.436;6.774;2023-04-26T13:13:55;2.88;;;2.60;;
20417;SDS011;10368;51.436;6.774;2023-04-26T13:16:22;6.15;;;3.30;;
20417;SDS011;10368;51.436;6.774;2023-04-26T13:18:49;5.17;;;2.97;;
20417;SDS011;10368;51.436;6.774;2023-04-26T13:21:16;7.60;;;3.30;;
20417;SDS011;10368;51.436;6.774;2023-04-26T13:23:46;5.80;;;3.50;;
20417;SDS011;10368;51.436;6.774;2023-04-26T13:26:14;5.70;;;3.27;;
20417;SDS011;10368;51.436;6.774;2023-04-26T13:28:45;3.40;;;2.90;;
20417;SDS011;10368;51.436;6.774;2023-04-26T13:31:15;4.97;;;3.60;;
20417;SDS011;10368;51.436;6.774;2023-04-26T13:33:46;3.20;;;2.80;;
20417;SDS011;10368;51.436;6.774;2023-04-26T13:36:15;5.37;;;3.33;;
20417;SDS011;10368;51.436;6.774;2023-04-26T13:38:43;4.37;;;3.40;;
20417;SDS011;10368;51.436;6.774;2023-04-26T13:41:10;9.83;;;4.37;;
20417;SDS011;10368;51.436;6.774;2023-04-26T13:43:37;5.70;;;3.40;;
20417;SDS011;10368;51.436;6.774;2023-04-26T13:46:04;5.20;;;3.20;;
20417;SDS011;10368;51.436;6.774;2023-04-26T13:48:32;4.93;;;3.60;;
20417;SDS011;10368;51.436;6.774;2023-04-26T13:50:59;14.70;;;4.80;;
20417;SDS011;10368;51.436;6.774;2023-04-26T13:53:26;7.57;;;3.50;;
20417;SDS011;10368;51.436;6.774;2023-04-26T13:55:53;5.17;;;2.83;;
20417;SDS011;10368;51.436;6.774;2023-04-26T13:58:21;4.17;;;3.40;;
20417;SDS011;10368;51.436;6.774;2023-04-26T14:00:48;5.50;;;3.20;;
20417;SDS011;10368;51.436;6.774;2023-04-26T14:03:15;7.30;;;3.50;;
20417;SDS011;10368;51.436;6.774;2023-04-26T14:05:43;4.73;;;3.40;;
20417;SDS011;10368;51.436;6.774;2023-04-26T14:08:10;4.50;;;3.40;;
20417;SDS011;10368;51.436;6.774;2023-04-26T14:10:38;5.17;;;3.07;;
20417;SDS011;10368;51.436;6.774;2023-04-26T14:13:05;3.43;;;3.07;;
20417;SDS011;10368;51.436;6.774;2023-04-26T14:15:32;3.83;;;3.30;;
20417;SDS011;10368;51.436;6.774;2023-04-26T14:17:59;6.13;;;4.03;;
20417;SDS011;10368;51.436;6.774;2023-04-26T14:20:26;5.17;;;3.33;;
20417;SDS011;10368;51.436;6.774;2023-04-26T14:22:54;4.53;;;3.60;;
20417;SDS011;10368;51.436;6.774;2023-04-26T14:25:21;6.13;;;3.87;;
20417;SDS011;10368;51.436;6.774;2023-04-26T14:27:48;8.07;;;4.03;;
20417;SDS011;10368;51.436;6.774;2023-04-26T14:30:18;4.00;;;3.60;;
20417;SDS011;10368;51.436;6.774;2023-04-26T14:32:46;4.50;;;4.00;;
20417;SDS011;10368;51.436;6.774;2023-04-26T14:35:15;4.40;;;3.93;;
20417;SDS011;10368;51.436;6.774;2023-04-26T14:37:42;6.33;;;5.30;;
20417;SDS011;10368;51.436;6.774;2023-04-26T14:40:09;7.40;;;5.70;;
20417;SDS011;10368;51.436;6.774;2023-04-26T14:42:37;5.50;;;4.27;;
20417;SDS011;10368;51.436;6.774;2023-04-26T14:45:09;6.73;;;4.20;;
20417;SDS011;10368;51.436;6.774;2023-04-26T14:47:36;5.27;;;3.30;;
20417;SDS011;10368;51.436;6.774;2023-04-26T14:50:04;6.30;;;3.80;;
20417;SDS011;10368;51.436;6.774;2023-04-26T14:52:33;3.90;;;3.50;;
20417;SDS011;10368;51.436;6.774;2023-04-26T14:55:01;10.53;;;6.77;;
20417;SDS011;10368;51.436;6.774;2023-04-26T14:57:28;5.10;;;3.90;;
20417;SDS011;10368;51.436;6.774;2023-04-26T14:59:56;7.90;;;3.40;;
20417;SDS011;10368;51.436;6.774;2023-04-26T15:02:32;4.57;;;3.17;;
20417;SDS011;10368;51.436;6.774;2023-04-26T15:04:59;6.93;;;4.00;;
20417;SDS011;10368;51.436;6.774;2023-04-26T15:07:28;6.07;;;3.57;;
20417;SDS011;10368;51.436;6.774;2023-04-26T15:09:58;4.93;;;3.40;;
20417;SDS011;10368;51.436;6.774;2023-04-26T15:12:26;6.80;;;4.17;;